sensor_id;sensor_type;location;lat;lon;timestamp;P1;durP1;ratioP1;P2;durP2;ratioP2
52650;SDS011;38537;47.226;39.702;2023-05-02T00:01:29;6.40;;;3.00;;
52650;SDS011;38537;47.226;39.702;2023-05-02T00:03:57;4.55;;;2.65;;
52650;SDS011;38537;47.226;39.702;2023-05-02T00:06:24;3.63;;;2.58;;
52650;SDS011;38537;47.226;39.702;2023-05-02T00:08:52;5.20;;;2.72;;
52650;SDS011;38537;47.226;39.702;2023-05-02T00:11:19;4.35;;;2.80;;
52650;SDS011;38537;47.226;39.702;2023-05-02T00:13:47;4.65;;;3.00;;
52650;SDS011;38537;47.226;39.702;2023-05-02T00:16:14;4.03;;;3.10;;
52650;SDS011;38537;47.226;39.702;2023-05-02T00:18:42;3.90;;;3.05;;
52650;SDS011;38537;47.226;39.702;2023-05-02T00:21:10;4.22;;;2.63;;
52650;SDS011;38537;47.226;39.702;2023-05-02T00:23:38;4.72;;;2.65;;
52650;SDS011;38537;47.226;39.702;2023-05-02T00:26:08;5.10;;;2.47;;
52650;SDS011;38537;47.226;39.702;2023-05-02T00:28:40;4.65;;;2.65;;
52650;SDS011;38537;47.226;39.702;2023-05-02T00:31:07;3.80;;;2.78;;
52650;SDS011;38537;47.226;39.702;2023-05-02T00:33:35;5.85;;;3.15;;
52650;SDS011;38537;47.226;39.702;2023-05-02T00:36:02;3.80;;;3.15;;
52650;SDS011;38537;47.226;39.702;2023-05-02T00:38:29;3.95;;;3.25;;
52650;SDS011;38537;47.226;39.702;2023-05-02T00:40:57;5.13;;;2.92;;
52650;SDS011;38537;47.226;39.702;2023-05-02T00:43:24;3.90;;;3.38;;
52650;SDS011;38537;47.226;39.702;2023-05-02T00:45:51;7.72;;;3.60;;
52650;SDS011;38537;47.226;39.702;2023-05-02T00:48:19;4.47;;;3.10;;
52650;SDS011;38537;47.226;39.702;2023-05-02T00:50:47;3.05;;;2.70;;
52650;SDS011;38537;47.226;39.702;2023-05-02T00:53:14;4.47;;;2.65;;
52650;SDS011;38537;47.226;39.702;2023-05-02T00:55:42;5.00;;;3.20;;
52650;SDS011;38537;47.226;39.702;2023-05-02T00:58:10;3.22;;;2.50;;
52650;SDS011;38537;47.226;39.702;2023-05-02T01:00:55;3.67;;;2.47;;
52650;SDS011;38537;47.226;39.702;2023-05-02T01:09:15;3.97;;;2.40;;
52650;SDS011;38537;47.226;39.702;2023-05-02T01:14:44;4.38;;;3.25;;
52650;SDS011;38537;47.226;39.702;2023-05-02T01:19:55;4.28;;;2.60;;
52650;SDS011;38537;47.226;39.702;2023-05-02T01:22:26;3.78;;;2.45;;
52650;SDS011;38537;47.226;39.702;2023-05-02T01:27:46;2.42;;;2.22;;
52650;SDS011;38537;47.226;39.702;2023-05-02T01:30:33;4.03;;;3.03;;
52650;SDS011;38537;47.226;39.702;2023-05-02T01:33:04;2.30;;;2.10;;
52650;SDS011;38537;47.226;39.702;2023-05-02T01:35:34;2.40;;;2.20;;
52650;SDS011;38537;47.226;39.702;2023-05-02T01:38:03;3.03;;;2.75;;
52650;SDS011;38537;47.226;39.702;2023-05-02T01:40:32;3.70;;;2.80;;
52650;SDS011;38537;47.226;39.702;2023-05-02T01:43:02;2.92;;;2.60;;
52650;SDS011;38537;47.226;39.702;2023-05-02T01:45:32;4.25;;;2.90;;
52650;SDS011;38537;47.226;39.702;2023-05-02T01:48:01;4.45;;;3.58;;
52650;SDS011;38537;47.226;39.702;2023-05-02T01:50:30;4.45;;;3.00;;
52650;SDS011;38537;47.226;39.702;2023-05-02T01:52:58;3.03;;;2.40;;
52650;SDS011;38537;47.226;39.702;2023-05-02T01:55:27;4.85;;;3.50;;
52650;SDS011;38537;47.226;39.702;2023-05-02T01:57:54;4.90;;;3.50;;
52650;SDS011;38537;47.226;39.702;2023-05-02T02:00:23;4.88;;;3.88;;
52650;SDS011;38537;47.226;39.702;2023-05-02T02:02:54;4.43;;;4.03;;
52650;SDS011;38537;47.226;39.702;2023-05-02T02:05:23;6.40;;;4.07;;
52650;SDS011;38537;47.226;39.702;2023-05-02T02:07:52;4.25;;;3.78;;
52650;SDS011;38537;47.226;39.702;2023-05-02T02:10:20;5.25;;;3.92;;
52650;SDS011;38537;47.226;39.702;2023-05-02T02:12:53;6.50;;;4.45;;
52650;SDS011;38537;47.226;39.702;2023-05-02T02:15:29;6.13;;;4.07;;
52650;SDS011;38537;47.226;39.702;2023-05-02T02:18:04;6.07;;;4.10;;
52650;SDS011;38537;47.226;39.702;2023-05-02T02:20:37;6.45;;;4.75;;
52650;SDS011;38537;47.226;39.702;2023-05-02T02:23:09;7.63;;;4.43;;
52650;SDS011;38537;47.226;39.702;2023-05-02T02:25:38;6.60;;;4.78;;
52650;SDS011;38537;47.226;39.702;2023-05-02T02:28:07;6.30;;;4.80;;
52650;SDS011;38537;47.226;39.702;2023-05-02T02:30:34;5.95;;;3.88;;
52650;SDS011;38537;47.226;39.702;2023-05-02T02:33:03;8.02;;;4.53;;
52650;SDS011;38537;47.226;39.702;2023-05-02T02:35:32;4.43;;;3.50;;
52650;SDS011;38537;47.226;39.702;2023-05-02T02:40:55;8.40;;;5.03;;
52650;SDS011;38537;47.226;39.702;2023-05-02T02:54:38;7.13;;;5.07;;
52650;SDS011;38537;47.226;39.702;2023-05-02T03:00:05;6.57;;;5.40;;
52650;SDS011;38537;47.226;39.702;2023-05-02T03:02:44;7.78;;;4.80;;
52650;SDS011;38537;47.226;39.702;2023-05-02T03:05:13;6.78;;;4.85;;
52650;SDS011;38537;47.226;39.702;2023-05-02T03:07:42;7.80;;;5.38;;
52650;SDS011;38537;47.226;39.702;2023-05-02T03:10:09;9.80;;;5.72;;
52650;SDS011;38537;47.226;39.702;2023-05-02T03:12:38;7.20;;;5.70;;
52650;SDS011;38537;47.226;39.702;2023-05-02T03:18:28;8.30;;;5.40;;
52650;SDS011;38537;47.226;39.702;2023-05-02T03:20:56;8.82;;;5.15;;
52650;SDS011;38537;47.226;39.702;2023-05-02T03:23:23;7.50;;;4.60;;
52650;SDS011;38537;47.226;39.702;2023-05-02T03:25:53;8.10;;;5.82;;
52650;SDS011;38537;47.226;39.702;2023-05-02T03:28:23;9.60;;;4.38;;
52650;SDS011;38537;47.226;39.702;2023-05-02T03:30:51;7.28;;;3.85;;
52650;SDS011;38537;47.226;39.702;2023-05-02T03:33:20;3.92;;;3.50;;
52650;SDS011;38537;47.226;39.702;2023-05-02T03:35:47;6.53;;;3.90;;
52650;SDS011;38537;47.226;39.702;2023-05-02T03:38:14;4.78;;;3.53;;
52650;SDS011;38537;47.226;39.702;2023-05-02T03:40:44;6.13;;;3.72;;
52650;SDS011;38537;47.226;39.702;2023-05-02T03:43:11;6.07;;;4.60;;
52650;SDS011;38537;47.226;39.702;2023-05-02T03:45:39;7.50;;;5.50;;
52650;SDS011;38537;47.226;39.702;2023-05-02T03:48:06;8.20;;;6.10;;
52650;SDS011;38537;47.226;39.702;2023-05-02T03:50:35;10.75;;;6.70;;
52650;SDS011;38537;47.226;39.702;2023-05-02T03:53:03;8.63;;;5.97;;
52650;SDS011;38537;47.226;39.702;2023-05-02T03:55:40;9.50;;;6.50;;
52650;SDS011;38537;47.226;39.702;2023-05-02T03:58:18;8.13;;;6.38;;
52650;SDS011;38537;47.226;39.702;2023-05-02T04:00:45;12.00;;;7.68;;
52650;SDS011;38537;47.226;39.702;2023-05-02T04:03:14;11.75;;;7.22;;
52650;SDS011;38537;47.226;39.702;2023-05-02T04:05:43;9.35;;;7.07;;
52650;SDS011;38537;47.226;39.702;2023-05-02T04:08:13;9.32;;;7.15;;
52650;SDS011;38537;47.226;39.702;2023-05-02T04:10:41;12.30;;;8.32;;
52650;SDS011;38537;47.226;39.702;2023-05-02T04:13:10;7.88;;;6.55;;
52650;SDS011;38537;47.226;39.702;2023-05-02T04:15:40;10.50;;;7.10;;
52650;SDS011;38537;47.226;39.702;2023-05-02T04:18:07;10.73;;;7.70;;
52650;SDS011;38537;47.226;39.702;2023-05-02T04:20:36;8.88;;;6.53;;
52650;SDS011;38537;47.226;39.702;2023-05-02T04:23:03;11.13;;;6.57;;
52650;SDS011;38537;47.226;39.702;2023-05-02T04:25:31;8.68;;;6.25;;
52650;SDS011;38537;47.226;39.702;2023-05-02T04:28:01;10.30;;;7.47;;
52650;SDS011;38537;47.226;39.702;2023-05-02T04:30:29;9.52;;;7.05;;
52650;SDS011;38537;47.226;39.702;2023-05-02T04:33:03;9.25;;;6.95;;
52650;SDS011;38537;47.226;39.702;2023-05-02T04:35:34;9.15;;;7.35;;
52650;SDS011;38537;47.226;39.702;2023-05-02T04:38:03;11.80;;;7.50;;
52650;SDS011;38537;47.226;39.702;2023-05-02T04:40:31;12.07;;;7.97;;
52650;SDS011;38537;47.226;39.702;2023-05-02T04:43:03;10.98;;;7.95;;
52650;SDS011;38537;47.226;39.702;2023-05-02T04:45:50;11.60;;;8.45;;
52650;SDS011;38537;47.226;39.702;2023-05-02T04:48:25;9.53;;;7.20;;
52650;SDS011;38537;47.226;39.702;2023-05-02T04:50:52;9.45;;;7.72;;
52650;SDS011;38537;47.226;39.702;2023-05-02T04:53:23;12.88;;;8.07;;
52650;SDS011;38537;47.226;39.702;2023-05-02T04:55:50;10.73;;;7.78;;
52650;SDS011;38537;47.226;39.702;2023-05-02T04:58:17;9.77;;;7.63;;
52650;SDS011;38537;47.226;39.702;2023-05-02T05:00:49;9.48;;;7.63;;
52650;SDS011;38537;47.226;39.702;2023-05-02T05:03:16;12.75;;;7.43;;
52650;SDS011;38537;47.226;39.702;2023-05-02T05:05:44;11.63;;;7.78;;
52650;SDS011;38537;47.226;39.702;2023-05-02T05:08:13;10.15;;;8.38;;
52650;SDS011;38537;47.226;39.702;2023-05-02T05:10:41;11.43;;;8.25;;
52650;SDS011;38537;47.226;39.702;2023-05-02T05:13:11;11.52;;;7.82;;
52650;SDS011;38537;47.226;39.702;2023-05-02T05:15:41;10.63;;;8.02;;
52650;SDS011;38537;47.226;39.702;2023-05-02T05:18:11;11.10;;;8.80;;
52650;SDS011;38537;47.226;39.702;2023-05-02T05:20:38;9.48;;;7.38;;
52650;SDS011;38537;47.226;39.702;2023-05-02T05:23:06;13.25;;;8.13;;
52650;SDS011;38537;47.226;39.702;2023-05-02T05:25:33;10.77;;;8.77;;
52650;SDS011;38537;47.226;39.702;2023-05-02T05:28:02;11.65;;;9.20;;
52650;SDS011;38537;47.226;39.702;2023-05-02T05:30:32;10.52;;;9.05;;
52650;SDS011;38537;47.226;39.702;2023-05-02T05:33:00;11.90;;;9.05;;
52650;SDS011;38537;47.226;39.702;2023-05-02T05:35:28;15.63;;;10.38;;
52650;SDS011;38537;47.226;39.702;2023-05-02T05:37:57;13.50;;;11.07;;
52650;SDS011;38537;47.226;39.702;2023-05-02T05:40:26;14.13;;;12.20;;
52650;SDS011;38537;47.226;39.702;2023-05-02T05:42:56;19.25;;;13.60;;
52650;SDS011;38537;47.226;39.702;2023-05-02T05:45:27;20.90;;;13.23;;
52650;SDS011;38537;47.226;39.702;2023-05-02T05:47:55;14.30;;;12.18;;
52650;SDS011;38537;47.226;39.702;2023-05-02T05:50:24;16.52;;;13.13;;
52650;SDS011;38537;47.226;39.702;2023-05-02T05:52:52;15.32;;;12.80;;
52650;SDS011;38537;47.226;39.702;2023-05-02T05:55:20;16.85;;;12.57;;
52650;SDS011;38537;47.226;39.702;2023-05-02T05:57:47;15.82;;;12.10;;
52650;SDS011;38537;47.226;39.702;2023-05-02T06:00:14;13.68;;;10.63;;
52650;SDS011;38537;47.226;39.702;2023-05-02T06:02:45;13.68;;;10.38;;
52650;SDS011;38537;47.226;39.702;2023-05-02T06:05:25;11.25;;;8.52;;
52650;SDS011;38537;47.226;39.702;2023-05-02T06:07:53;15.18;;;10.25;;
52650;SDS011;38537;47.226;39.702;2023-05-02T06:10:20;15.32;;;10.18;;
52650;SDS011;38537;47.226;39.702;2023-05-02T06:12:48;21.23;;;10.02;;
52650;SDS011;38537;47.226;39.702;2023-05-02T06:15:18;14.90;;;9.73;;
52650;SDS011;38537;47.226;39.702;2023-05-02T06:17:46;12.10;;;9.65;;
52650;SDS011;38537;47.226;39.702;2023-05-02T06:20:14;13.75;;;9.82;;
52650;SDS011;38537;47.226;39.702;2023-05-02T06:22:44;13.68;;;10.43;;
52650;SDS011;38537;47.226;39.702;2023-05-02T06:25:12;11.35;;;9.73;;
52650;SDS011;38537;47.226;39.702;2023-05-02T06:27:39;10.95;;;8.65;;
52650;SDS011;38537;47.226;39.702;2023-05-02T06:30:07;10.55;;;8.43;;
52650;SDS011;38537;47.226;39.702;2023-05-02T06:32:35;11.50;;;8.95;;
52650;SDS011;38537;47.226;39.702;2023-05-02T06:35:02;9.52;;;7.85;;
52650;SDS011;38537;47.226;39.702;2023-05-02T06:37:33;9.98;;;8.65;;
52650;SDS011;38537;47.226;39.702;2023-05-02T06:40:01;10.63;;;8.13;;
52650;SDS011;38537;47.226;39.702;2023-05-02T06:42:31;10.50;;;7.97;;
52650;SDS011;38537;47.226;39.702;2023-05-02T06:44:58;9.02;;;7.22;;
52650;SDS011;38537;47.226;39.702;2023-05-02T06:47:25;11.63;;;7.68;;
52650;SDS011;38537;47.226;39.702;2023-05-02T06:49:54;10.98;;;6.50;;
52650;SDS011;38537;47.226;39.702;2023-05-02T06:52:22;7.15;;;6.05;;
52650;SDS011;38537;47.226;39.702;2023-05-02T06:54:49;9.65;;;6.85;;
52650;SDS011;38537;47.226;39.702;2023-05-02T06:57:16;9.85;;;6.57;;
52650;SDS011;38537;47.226;39.702;2023-05-02T06:59:43;9.32;;;5.97;;
52650;SDS011;38537;47.226;39.702;2023-05-02T07:02:11;9.73;;;5.80;;
52650;SDS011;38537;47.226;39.702;2023-05-02T07:04:38;7.60;;;5.18;;
52650;SDS011;38537;47.226;39.702;2023-05-02T07:07:05;9.05;;;5.53;;
52650;SDS011;38537;47.226;39.702;2023-05-02T07:09:33;7.20;;;5.18;;
52650;SDS011;38537;47.226;39.702;2023-05-02T07:12:00;7.43;;;5.50;;
52650;SDS011;38537;47.226;39.702;2023-05-02T07:14:31;5.95;;;4.70;;
52650;SDS011;38537;47.226;39.702;2023-05-02T07:17:00;6.22;;;4.30;;
52650;SDS011;38537;47.226;39.702;2023-05-02T07:19:28;7.68;;;5.60;;
52650;SDS011;38537;47.226;39.702;2023-05-02T07:21:55;7.20;;;5.43;;
52650;SDS011;38537;47.226;39.702;2023-05-02T07:24:23;10.32;;;5.05;;
52650;SDS011;38537;47.226;39.702;2023-05-02T07:26:51;7.10;;;5.70;;
52650;SDS011;38537;47.226;39.702;2023-05-02T07:29:18;7.40;;;5.60;;
52650;SDS011;38537;47.226;39.702;2023-05-02T07:31:45;10.43;;;5.22;;
52650;SDS011;38537;47.226;39.702;2023-05-02T07:34:12;8.40;;;4.88;;
52650;SDS011;38537;47.226;39.702;2023-05-02T07:36:40;8.10;;;4.80;;
52650;SDS011;38537;47.226;39.702;2023-05-02T07:39:08;6.68;;;4.18;;
52650;SDS011;38537;47.226;39.702;2023-05-02T07:41:36;6.80;;;4.05;;
52650;SDS011;38537;47.226;39.702;2023-05-02T07:44:03;8.80;;;4.30;;
52650;SDS011;38537;47.226;39.702;2023-05-02T07:46:30;7.00;;;4.43;;
52650;SDS011;38537;47.226;39.702;2023-05-02T07:48:58;7.00;;;5.00;;
52650;SDS011;38537;47.226;39.702;2023-05-02T07:51:25;7.22;;;4.57;;
52650;SDS011;38537;47.226;39.702;2023-05-02T07:53:52;7.53;;;4.40;;
52650;SDS011;38537;47.226;39.702;2023-05-02T07:56:21;7.90;;;5.13;;
52650;SDS011;38537;47.226;39.702;2023-05-02T07:58:48;9.20;;;5.18;;
52650;SDS011;38537;47.226;39.702;2023-05-02T08:01:17;7.57;;;5.20;;
52650;SDS011;38537;47.226;39.702;2023-05-02T08:03:44;7.10;;;4.65;;
52650;SDS011;38537;47.226;39.702;2023-05-02T08:06:12;8.07;;;4.88;;
52650;SDS011;38537;47.226;39.702;2023-05-02T08:08:40;7.68;;;4.85;;
52650;SDS011;38537;47.226;39.702;2023-05-02T08:11:07;6.47;;;3.80;;
52650;SDS011;38537;47.226;39.702;2023-05-02T08:13:34;7.53;;;4.80;;
52650;SDS011;38537;47.226;39.702;2023-05-02T08:16:02;5.40;;;4.45;;
52650;SDS011;38537;47.226;39.702;2023-05-02T08:18:29;4.68;;;4.10;;
52650;SDS011;38537;47.226;39.702;2023-05-02T08:20:56;6.30;;;3.85;;
52650;SDS011;38537;47.226;39.702;2023-05-02T08:23:26;8.45;;;4.25;;
52650;SDS011;38537;47.226;39.702;2023-05-02T08:25:54;6.57;;;3.92;;
52650;SDS011;38537;47.226;39.702;2023-05-02T08:28:21;5.15;;;3.92;;
52650;SDS011;38537;47.226;39.702;2023-05-02T08:30:49;7.43;;;4.35;;
52650;SDS011;38537;47.226;39.702;2023-05-02T08:33:16;6.05;;;4.28;;
52650;SDS011;38537;47.226;39.702;2023-05-02T08:35:43;5.88;;;4.10;;
52650;SDS011;38537;47.226;39.702;2023-05-02T08:38:10;7.15;;;4.15;;
52650;SDS011;38537;47.226;39.702;2023-05-02T08:40:37;7.43;;;4.65;;
52650;SDS011;38537;47.226;39.702;2023-05-02T08:43:09;6.65;;;4.50;;
52650;SDS011;38537;47.226;39.702;2023-05-02T08:45:38;8.63;;;4.40;;
52650;SDS011;38537;47.226;39.702;2023-05-02T08:48:11;8.70;;;4.35;;
52650;SDS011;38537;47.226;39.702;2023-05-02T08:50:44;5.80;;;4.68;;
52650;SDS011;38537;47.226;39.702;2023-05-02T08:53:14;6.72;;;4.47;;
52650;SDS011;38537;47.226;39.702;2023-05-02T08:55:42;6.68;;;4.32;;
52650;SDS011;38537;47.226;39.702;2023-05-02T08:58:10;5.53;;;4.25;;
52650;SDS011;38537;47.226;39.702;2023-05-02T09:00:40;6.45;;;4.70;;
52650;SDS011;38537;47.226;39.702;2023-05-02T09:08:32;13.05;;;6.38;;
52650;SDS011;38537;47.226;39.702;2023-05-02T09:11:01;10.82;;;6.82;;
52650;SDS011;38537;47.226;39.702;2023-05-02T09:16:06;10.27;;;7.50;;
52650;SDS011;38537;47.226;39.702;2023-05-02T09:18:36;10.13;;;7.60;;
52650;SDS011;38537;47.226;39.702;2023-05-02T09:21:16;11.48;;;8.23;;
52650;SDS011;38537;47.226;39.702;2023-05-02T09:23:47;12.98;;;7.80;;
52650;SDS011;38537;47.226;39.702;2023-05-02T09:28:45;10.57;;;7.68;;
52650;SDS011;38537;47.226;39.702;2023-05-02T09:31:18;9.18;;;7.45;;
52650;SDS011;38537;47.226;39.702;2023-05-02T09:36:40;11.48;;;8.20;;
52650;SDS011;38537;47.226;39.702;2023-05-02T09:39:19;11.63;;;8.55;;
52650;SDS011;38537;47.226;39.702;2023-05-02T09:41:57;9.82;;;7.70;;
52650;SDS011;38537;47.226;39.702;2023-05-02T09:44:25;11.73;;;8.30;;
52650;SDS011;38537;47.226;39.702;2023-05-02T09:47:01;12.13;;;8.63;;
52650;SDS011;38537;47.226;39.702;2023-05-02T09:49:42;10.63;;;8.57;;
52650;SDS011;38537;47.226;39.702;2023-05-02T09:52:14;10.00;;;8.82;;
52650;SDS011;38537;47.226;39.702;2023-05-02T09:54:43;10.35;;;8.70;;
52650;SDS011;38537;47.226;39.702;2023-05-02T09:57:12;11.05;;;8.90;;
52650;SDS011;38537;47.226;39.702;2023-05-02T09:59:40;11.18;;;8.82;;
52650;SDS011;38537;47.226;39.702;2023-05-02T10:02:08;10.63;;;8.73;;
52650;SDS011;38537;47.226;39.702;2023-05-02T10:04:37;10.35;;;8.50;;
52650;SDS011;38537;47.226;39.702;2023-05-02T10:07:06;10.48;;;8.23;;
52650;SDS011;38537;47.226;39.702;2023-05-02T10:09:37;9.85;;;8.25;;
52650;SDS011;38537;47.226;39.702;2023-05-02T10:12:12;9.90;;;8.38;;
52650;SDS011;38537;47.226;39.702;2023-05-02T10:14:43;12.15;;;8.95;;
52650;SDS011;38537;47.226;39.702;2023-05-02T10:17:26;10.90;;;9.32;;
52650;SDS011;38537;47.226;39.702;2023-05-02T10:19:59;12.07;;;8.85;;
52650;SDS011;38537;47.226;39.702;2023-05-02T10:22:35;13.13;;;8.90;;
52650;SDS011;38537;47.226;39.702;2023-05-02T10:25:03;13.75;;;9.38;;
52650;SDS011;38537;47.226;39.702;2023-05-02T10:27:33;10.63;;;8.80;;
52650;SDS011;38537;47.226;39.702;2023-05-02T10:30:00;11.23;;;9.40;;
52650;SDS011;38537;47.226;39.702;2023-05-02T10:32:32;11.90;;;9.75;;
52650;SDS011;38537;47.226;39.702;2023-05-02T10:35:03;12.77;;;9.80;;
52650;SDS011;38537;47.226;39.702;2023-05-02T10:37:34;12.00;;;9.80;;
52650;SDS011;38537;47.226;39.702;2023-05-02T10:40:06;12.32;;;10.25;;
52650;SDS011;38537;47.226;39.702;2023-05-02T10:42:37;14.60;;;10.68;;
52650;SDS011;38537;47.226;39.702;2023-05-02T10:58:48;11.88;;;10.13;;
52650;SDS011;38537;47.226;39.702;2023-05-02T11:06:32;13.95;;;10.50;;
52650;SDS011;38537;47.226;39.702;2023-05-02T11:11:44;13.40;;;9.90;;
52650;SDS011;38537;47.226;39.702;2023-05-02T11:24:48;15.23;;;10.95;;
52650;SDS011;38537;47.226;39.702;2023-05-02T11:30:11;13.63;;;9.80;;
52650;SDS011;38537;47.226;39.702;2023-05-02T11:35:25;11.57;;;9.35;;
52650;SDS011;38537;47.226;39.702;2023-05-02T11:37:53;12.73;;;9.15;;
52650;SDS011;38537;47.226;39.702;2023-05-02T11:40:22;10.73;;;8.20;;
52650;SDS011;38537;47.226;39.702;2023-05-02T11:42:50;11.10;;;8.23;;
52650;SDS011;38537;47.226;39.702;2023-05-02T11:45:18;10.35;;;7.90;;
52650;SDS011;38537;47.226;39.702;2023-05-02T11:47:47;13.45;;;8.57;;
52650;SDS011;38537;47.226;39.702;2023-05-02T11:50:16;13.23;;;9.40;;
52650;SDS011;38537;47.226;39.702;2023-05-02T11:52:44;13.15;;;9.60;;
52650;SDS011;38537;47.226;39.702;2023-05-02T11:55:12;13.48;;;10.18;;
52650;SDS011;38537;47.226;39.702;2023-05-02T11:57:40;12.10;;;8.75;;
52650;SDS011;38537;47.226;39.702;2023-05-02T12:00:09;13.52;;;9.38;;
52650;SDS011;38537;47.226;39.702;2023-05-02T12:02:40;10.13;;;8.25;;
52650;SDS011;38537;47.226;39.702;2023-05-02T12:05:12;11.18;;;8.75;;
52650;SDS011;38537;47.226;39.702;2023-05-02T12:10:11;9.88;;;8.18;;
52650;SDS011;38537;47.226;39.702;2023-05-02T12:12:41;14.57;;;8.35;;
52650;SDS011;38537;47.226;39.702;2023-05-02T12:15:10;11.75;;;8.15;;
52650;SDS011;38537;47.226;39.702;2023-05-02T12:17:42;13.20;;;8.90;;
52650;SDS011;38537;47.226;39.702;2023-05-02T12:20:12;9.55;;;7.28;;
52650;SDS011;38537;47.226;39.702;2023-05-02T12:22:41;9.07;;;7.82;;
52650;SDS011;38537;47.226;39.702;2023-05-02T12:25:08;13.55;;;9.63;;
52650;SDS011;38537;47.226;39.702;2023-05-02T12:27:36;9.52;;;7.65;;
52650;SDS011;38537;47.226;39.702;2023-05-02T12:30:03;10.48;;;8.27;;
52650;SDS011;38537;47.226;39.702;2023-05-02T12:32:32;9.70;;;7.00;;
52650;SDS011;38537;47.226;39.702;2023-05-02T12:35:02;9.82;;;8.07;;
52650;SDS011;38537;47.226;39.702;2023-05-02T12:37:32;10.05;;;7.43;;
52650;SDS011;38537;47.226;39.702;2023-05-02T12:39:59;10.57;;;8.30;;
52650;SDS011;38537;47.226;39.702;2023-05-02T12:42:29;11.48;;;8.10;;
52650;SDS011;38537;47.226;39.702;2023-05-02T12:45:00;8.15;;;6.93;;
52650;SDS011;38537;47.226;39.702;2023-05-02T12:47:30;11.43;;;7.95;;
52650;SDS011;38537;47.226;39.702;2023-05-02T12:50:11;9.43;;;7.60;;
52650;SDS011;38537;47.226;39.702;2023-05-02T12:52:50;8.77;;;7.10;;
52650;SDS011;38537;47.226;39.702;2023-05-02T12:55:25;10.00;;;7.20;;
52650;SDS011;38537;47.226;39.702;2023-05-02T12:58:01;9.48;;;7.18;;
52650;SDS011;38537;47.226;39.702;2023-05-02T13:00:30;10.85;;;7.53;;
52650;SDS011;38537;47.226;39.702;2023-05-02T13:02:58;7.82;;;6.30;;
52650;SDS011;38537;47.226;39.702;2023-05-02T13:05:26;9.82;;;7.63;;
52650;SDS011;38537;47.226;39.702;2023-05-02T13:07:53;8.75;;;7.00;;
52650;SDS011;38537;47.226;39.702;2023-05-02T13:10:22;7.70;;;6.90;;
52650;SDS011;38537;47.226;39.702;2023-05-02T13:12:51;9.63;;;6.95;;
52650;SDS011;38537;47.226;39.702;2023-05-02T13:15:18;7.22;;;6.43;;
52650;SDS011;38537;47.226;39.702;2023-05-02T13:17:46;8.48;;;7.13;;
52650;SDS011;38537;47.226;39.702;2023-05-02T13:20:16;9.80;;;7.22;;
52650;SDS011;38537;47.226;39.702;2023-05-02T13:22:43;8.48;;;7.45;;
52650;SDS011;38537;47.226;39.702;2023-05-02T13:25:10;11.30;;;8.02;;
52650;SDS011;38537;47.226;39.702;2023-05-02T13:27:38;9.98;;;6.85;;
52650;SDS011;38537;47.226;39.702;2023-05-02T13:30:07;10.00;;;7.07;;
52650;SDS011;38537;47.226;39.702;2023-05-02T13:32:36;10.95;;;7.00;;
52650;SDS011;38537;47.226;39.702;2023-05-02T13:35:03;8.50;;;7.05;;
52650;SDS011;38537;47.226;39.702;2023-05-02T13:37:31;8.75;;;6.95;;
52650;SDS011;38537;47.226;39.702;2023-05-02T13:39:58;6.97;;;6.28;;
52650;SDS011;38537;47.226;39.702;2023-05-02T13:42:26;8.02;;;6.38;;
52650;SDS011;38537;47.226;39.702;2023-05-02T13:44:53;7.65;;;5.85;;
52650;SDS011;38537;47.226;39.702;2023-05-02T13:47:21;9.20;;;6.43;;
52650;SDS011;38537;47.226;39.702;2023-05-02T13:49:49;6.93;;;6.07;;
52650;SDS011;38537;47.226;39.702;2023-05-02T13:52:16;8.05;;;6.53;;
52650;SDS011;38537;47.226;39.702;2023-05-02T13:54:43;10.90;;;6.97;;
52650;SDS011;38537;47.226;39.702;2023-05-02T13:57:11;10.13;;;7.50;;
52650;SDS011;38537;47.226;39.702;2023-05-02T13:59:38;11.32;;;7.93;;
52650;SDS011;38537;47.226;39.702;2023-05-02T14:02:06;9.52;;;7.32;;
52650;SDS011;38537;47.226;39.702;2023-05-02T14:04:33;10.18;;;7.65;;
52650;SDS011;38537;47.226;39.702;2023-05-02T14:07:01;8.85;;;7.07;;
52650;SDS011;38537;47.226;39.702;2023-05-02T14:09:28;9.35;;;6.70;;
52650;SDS011;38537;47.226;39.702;2023-05-02T14:11:55;8.95;;;6.35;;
52650;SDS011;38537;47.226;39.702;2023-05-02T14:14:24;8.15;;;6.90;;
52650;SDS011;38537;47.226;39.702;2023-05-02T14:16:51;8.95;;;6.40;;
52650;SDS011;38537;47.226;39.702;2023-05-02T14:19:19;8.30;;;6.20;;
52650;SDS011;38537;47.226;39.702;2023-05-02T14:21:46;10.48;;;6.18;;
52650;SDS011;38537;47.226;39.702;2023-05-02T14:24:14;8.63;;;6.20;;
52650;SDS011;38537;47.226;39.702;2023-05-02T14:26:42;8.32;;;6.13;;
52650;SDS011;38537;47.226;39.702;2023-05-02T14:29:09;8.25;;;6.18;;
52650;SDS011;38537;47.226;39.702;2023-05-02T14:31:37;7.82;;;6.40;;
52650;SDS011;38537;47.226;39.702;2023-05-02T14:34:04;6.78;;;6.07;;
52650;SDS011;38537;47.226;39.702;2023-05-02T14:36:34;8.73;;;6.80;;
52650;SDS011;38537;47.226;39.702;2023-05-02T14:39:01;7.32;;;5.80;;
52650;SDS011;38537;47.226;39.702;2023-05-02T14:41:29;6.22;;;5.45;;
52650;SDS011;38537;47.226;39.702;2023-05-02T14:43:56;8.73;;;6.30;;
52650;SDS011;38537;47.226;39.702;2023-05-02T14:46:23;7.78;;;5.82;;
52650;SDS011;38537;47.226;39.702;2023-05-02T14:48:51;8.50;;;5.38;;
52650;SDS011;38537;47.226;39.702;2023-05-02T14:51:18;6.85;;;5.07;;
52650;SDS011;38537;47.226;39.702;2023-05-02T14:53:46;7.32;;;5.65;;
52650;SDS011;38537;47.226;39.702;2023-05-02T14:56:15;5.55;;;4.95;;
52650;SDS011;38537;47.226;39.702;2023-05-02T14:58:44;9.85;;;5.78;;
52650;SDS011;38537;47.226;39.702;2023-05-02T15:01:18;7.80;;;5.90;;
52650;SDS011;38537;47.226;39.702;2023-05-02T15:03:49;7.35;;;5.65;;
52650;SDS011;38537;47.226;39.702;2023-05-02T15:06:32;8.80;;;5.63;;
52650;SDS011;38537;47.226;39.702;2023-05-02T15:09:01;6.10;;;5.20;;
52650;SDS011;38537;47.226;39.702;2023-05-02T15:11:28;7.57;;;5.07;;
52650;SDS011;38537;47.226;39.702;2023-05-02T15:13:57;7.55;;;5.18;;
52650;SDS011;38537;47.226;39.702;2023-05-02T15:16:25;7.32;;;5.60;;
52650;SDS011;38537;47.226;39.702;2023-05-02T15:18:53;6.00;;;5.40;;
52650;SDS011;38537;47.226;39.702;2023-05-02T15:21:20;6.70;;;6.00;;
52650;SDS011;38537;47.226;39.702;2023-05-02T15:23:48;6.60;;;5.90;;
52650;SDS011;38537;47.226;39.702;2023-05-02T15:26:16;6.35;;;5.65;;
52650;SDS011;38537;47.226;39.702;2023-05-02T15:28:55;7.78;;;5.60;;
52650;SDS011;38537;47.226;39.702;2023-05-02T15:31:23;7.03;;;6.10;;
52650;SDS011;38537;47.226;39.702;2023-05-02T15:33:51;7.32;;;5.53;;
52650;SDS011;38537;47.226;39.702;2023-05-02T15:36:18;7.68;;;4.60;;
52650;SDS011;38537;47.226;39.702;2023-05-02T15:38:48;9.00;;;5.25;;
52650;SDS011;38537;47.226;39.702;2023-05-02T15:41:17;6.00;;;5.00;;
52650;SDS011;38537;47.226;39.702;2023-05-02T15:43:45;7.18;;;4.88;;
52650;SDS011;38537;47.226;39.702;2023-05-02T15:46:15;7.40;;;4.72;;
52650;SDS011;38537;47.226;39.702;2023-05-02T15:48:42;8.18;;;5.53;;
52650;SDS011;38537;47.226;39.702;2023-05-02T15:51:09;6.57;;;5.10;;
52650;SDS011;38537;47.226;39.702;2023-05-02T15:53:42;7.45;;;5.20;;
52650;SDS011;38537;47.226;39.702;2023-05-02T15:56:15;7.22;;;5.18;;
52650;SDS011;38537;47.226;39.702;2023-05-02T15:58:43;8.20;;;5.95;;
52650;SDS011;38537;47.226;39.702;2023-05-02T16:01:11;7.72;;;6.07;;
52650;SDS011;38537;47.226;39.702;2023-05-02T16:03:38;10.10;;;5.80;;
52650;SDS011;38537;47.226;39.702;2023-05-02T16:06:05;8.10;;;5.55;;
52650;SDS011;38537;47.226;39.702;2023-05-02T16:08:33;8.10;;;5.53;;